Time;durP1;ratioP1;P1;durP2;ratioP2;P2;SDS_P1;SDS_P2;PMS_P1;PMS_P2;Temp;Humidity;BMP_temperature;BMP_pressure;BME280_temperature;BME280_humidity;BME280_pressure;Samples;Min_cycle;Max_cycle;Signal;HPM_P1;HPM_P2
2022/09/22 00:01:05;;;;;;;76.05;9.75;;;;;;;12.51;64.91;102195.47;4810437;29;120090;-70
2022/09/22 00:03:34;;;;;;;44.15;7.72;;;;;;;12.48;65.56;102190.84;4813536;29;120000;-69
2022/09/22 00:06:08;;;;;;;56.35;9.48;;;;;;;12.47;65.78;102184.56;4811935;29;119981;-70
2022/09/22 00:08:37;;;;;;;57.10;8.75;;;;;;;12.48;65.25;102188.06;4814436;29;119231;-69
2022/09/22 00:11:15;;;;;;;42.47;7.43;;;;;;;12.45;65.07;102186.19;4811019;29;120268;-69
2022/09/22 00:13:56;;;;;;;44.55;7.88;;;;;;;12.43;64.83;102185.84;4791808;29;119547;-69
2022/09/22 00:16:32;;;;;;;58.90;8.65;;;;;;;12.39;65.13;102185.91;4807281;29;119671;-69
2022/09/22 00:18:59;;;;;;;63.60;9.07;;;;;;;12.37;65.18;102188.31;4814086;29;120299;-70
2022/09/22 00:21:29;;;;;;;64.05;9.10;;;;;;;12.36;65.10;102183.25;4812953;29;119789;-69
2022/09/22 00:23:55;;;;;;;59.80;8.38;;;;;;;12.34;65.12;102182.91;4812336;29;120357;-70
2022/09/22 00:26:22;;;;;;;36.77;6.90;;;;;;;12.27;64.93;102176.31;4809880;29;119227;-70
2022/09/22 00:29:00;;;;;;;60.63;8.73;;;;;;;12.28;65.59;102180.63;4815090;29;119695;-69
2022/09/22 00:31:27;;;;;;;68.05;9.65;;;;;;;12.28;65.58;102180.63;4792639;29;120876;-69
2022/09/22 00:33:54;;;;;;;42.72;8.55;;;;;;;12.26;65.15;102166.53;4804406;29;119220;-69
2022/09/22 00:36:24;;;;;;;38.38;7.70;;;;;;;12.25;64.84;102173.22;4812672;29;119811;-68
2022/09/22 00:38:51;;;;;;;41.70;8.07;;;;;;;12.23;64.80;102161.88;4805331;29;122363;-69
2022/09/22 00:41:33;;;;;;;47.78;7.95;;;;;;;12.22;65.05;102176.84;4823587;29;119733;-69
2022/09/22 00:44:37;;;;;;;57.95;8.77;;;;;;;12.20;65.35;102168.22;4807981;29;119671;-69
2022/09/22 00:47:05;;;;;;;42.45;8.23;;;;;;;12.19;65.61;102168.66;4781068;29;120295;-69
2022/09/22 00:49:58;;;;;;;61.93;8.57;;;;;;;12.19;65.59;102158.44;4792986;29;119803;-69
2022/09/22 00:52:28;;;;;;;43.70;7.90;;;;;;;12.18;64.61;102165.13;4803125;29;120353;-69
2022/09/22 00:54:57;;;;;;;33.35;6.38;;;;;;;12.14;64.93;102164.44;4813452;29;119895;-69
2022/09/22 00:57:30;;;;;;;32.70;7.60;;;;;;;12.15;65.43;102165.22;4812391;29;120231;-69
2022/09/22 00:59:56;;;;;;;49.20;7.70;;;;;;;12.12;64.93;102163.31;4811351;29;121866;-68
2022/09/22 01:02:25;;;;;;;57.80;8.48;;;;;;;12.11;64.88;102159.78;4808649;29;119650;-69
2022/09/22 01:04:51;;;;;;;28.58;6.38;;;;;;;12.10;64.72;102158.25;4799842;29;119784;-69
2022/09/22 01:07:20;;;;;;;55.95;8.45;;;;;;;12.06;64.59;102163.03;4813174;29;119688;-69
2022/09/22 01:09:47;;;;;;;41.97;7.85;;;;;;;12.03;64.34;102160.34;4809938;29;119735;-69
2022/09/22 01:12:14;;;;;;;39.60;7.70;;;;;;;11.98;64.72;102153.38;4809225;29;120184;-69
2022/09/22 01:14:49;;;;;;;54.95;9.50;;;;;;;11.98;64.80;102161.63;4812135;29;120183;-68
2022/09/22 01:17:41;;;;;;;47.33;9.73;;;;;;;11.92;64.97;102146.81;4803053;29;120419;-70
2022/09/22 01:20:22;;;;;;;53.57;10.30;;;;;;;11.91;65.12;102156.28;4798800;29;120629;-70
2022/09/22 01:23:23;;;;;;;45.30;9.50;;;;;;;11.87;64.22;102155.56;4805528;29;120365;-69
2022/09/22 01:26:22;;;;;;;59.30;15.77;;;;;;;11.82;65.08;102150.53;4808996;29;119381;-69
2022/09/22 01:29:19;;;;;;;38.35;11.15;;;;;;;11.79;65.05;102148.66;4813325;29;120033;-69
2022/09/22 01:31:47;;;;;;;52.53;11.43;;;;;;;11.80;64.96;102155.69;4813513;29;119526;-70
2022/09/22 01:34:28;;;;;;;62.65;12.05;;;;;;;11.80;65.61;102141.94;4812466;29;119969;-70
2022/09/22 01:36:59;;;;;;;35.47;10.07;;;;;;;11.78;65.32;102136.88;4807041;29;119357;-70
2022/09/22 01:39:33;;;;;;;42.42;8.85;;;;;;;11.78;65.39;102134.13;4813273;29;119525;-69
2022/09/22 01:42:02;;;;;;;51.47;9.20;;;;;;;11.79;65.04;102134.91;4812218;29;119757;-69
2022/09/22 01:44:48;;;;;;;39.40;8.18;;;;;;;11.77;64.71;102135.28;4814002;29;119601;-69
2022/09/22 01:47:21;;;;;;;32.33;7.40;;;;;;;11.75;64.64;102137.69;4808525;29;119986;-69
2022/09/22 01:50:04;;;;;;;25.67;6.25;;;;;;;11.71;64.45;102125.22;4812022;29;119844;-69
2022/09/22 01:52:33;;;;;;;42.65;7.45;;;;;;;11.69;64.03;102123.66;4817549;29;119680;-69
2022/09/22 01:55:15;;;;;;;58.92;9.27;;;;;;;11.65;64.17;102131.22;4793010;29;119874;-69
2022/09/22 01:57:52;;;;;;;23.05;7.00;;;;;;;11.62;64.60;102123.81;4819348;29;119294;-68
2022/09/22 02:00:25;;;;;;;37.65;8.10;;;;;;;11.59;64.50;102132.91;4806382;29;119872;-69
2022/09/22 02:02:59;;;;;;;65.20;9.23;;;;;;;11.56;64.93;102125.50;4811727;29;119927;-69
2022/09/22 02:05:32;;;;;;;63.97;9.33;;;;;;;11.54;65.62;102119.63;4811118;29;119343;-69
2022/09/22 02:08:01;;;;;;;55.95;8.82;;;;;;;11.54;65.16;102108.66;4811695;29;119760;-69
2022/09/22 02:10:37;;;;;;;44.63;7.82;;;;;;;11.54;65.30;102122.38;4812388;29;119710;-69
2022/09/22 02:13:03;;;;;;;44.45;8.88;;;;;;;11.53;64.92;102109.06;4811611;29;119862;-69
2022/09/22 02:18:19;;;;;;;44.13;8.77;;;;;;;11.47;64.69;102113.50;4810535;29;119326;-69
2022/09/22 02:20:45;;;;;;;44.53;8.20;;;;;;;11.47;64.94;102108.78;4808529;29;119848;-69
2022/09/22 02:23:11;;;;;;;40.97;8.10;;;;;;;11.41;64.73;102109.72;4813043;29;120042;-69
2022/09/22 02:25:40;;;;;;;60.63;9.80;;;;;;;11.40;65.65;102106.19;4813741;29;119966;-68
2022/09/22 02:28:07;;;;;;;60.00;9.53;;;;;;;11.38;65.02;102103.09;4810995;29;119262;-69
2022/09/22 02:30:34;;;;;;;26.02;6.80;;;;;;;11.41;65.16;102112.47;4814175;29;119240;-69
2022/09/22 02:33:00;;;;;;;47.35;8.82;;;;;;;11.40;65.16;102119.94;4816302;29;119298;-69
2022/09/22 02:35:29;;;;;;;53.93;9.70;;;;;;;11.39;65.73;102115.63;4816137;29;119620;-69
2022/09/22 02:38:18;;;;;;;45.05;7.80;;;;;;;11.39;64.70;102115.63;4819648;29;120076;-69
2022/09/22 02:41:06;;;;;;;50.75;9.30;;;;;;;11.34;65.43;102107.84;4810992;29;119236;-69
2022/09/22 02:43:55;;;;;;;49.85;8.57;;;;;;;11.33;65.53;102109.03;4812550;29;120430;-69
2022/09/22 02:46:32;;;;;;;62.47;10.40;;;;;;;11.34;65.92;102107.84;4810486;29;119730;-68
2022/09/22 02:49:02;;;;;;;58.60;11.93;;;;;;;11.32;65.45;102110.25;4814501;29;119824;-69
2022/09/22 02:51:29;;;;;;;45.42;11.20;;;;;;;11.30;65.62;102104.41;4810338;29;119819;-69
2022/09/22 02:53:56;;;;;;;58.23;9.73;;;;;;;11.32;65.11;102104.75;4810169;29;119423;-69
2022/09/22 02:56:22;;;;;;;56.22;9.73;;;;;;;11.31;65.87;102105.94;4802910;29;121258;-68
2022/09/22 02:58:48;;;;;;;42.17;7.88;;;;;;;11.32;64.87;102104.75;4810845;29;121902;-69
2022/09/22 03:01:14;;;;;;;35.13;8.33;;;;;;;11.32;64.67;102115.75;4783539;29;120621;-69
2022/09/22 03:03:39;;;;;;;45.63;9.17;;;;;;;11.25;64.94;102094.69;4809519;29;120188;-69
2022/09/22 03:06:05;;;;;;;57.60;10.27;;;;;;;11.24;65.10;102101.38;4813251;29;119354;-69
2022/09/22 03:08:31;;;;;;;47.40;8.65;;;;;;;11.22;64.96;102092.78;4814346;29;119806;-69
2022/09/22 03:10:57;;;;;;;64.85;10.88;;;;;;;11.22;65.14;102100.25;4814663;29;119632;-69
2022/09/22 03:13:23;;;;;;;57.58;11.75;;;;;;;11.19;65.58;102090.88;4799222;29;119739;-69
2022/09/22 03:15:49;;;;;;;40.45;9.13;;;;;;;11.20;65.56;102094.41;4805309;29;119817;-69
2022/09/22 03:18:15;;;;;;;44.45;9.20;;;;;;;11.18;65.43;102094.81;4800282;29;120117;-68
2022/09/22 03:20:41;;;;;;;54.45;10.43;;;;;;;11.18;64.76;102096.78;4818450;29;119860;-69
2022/09/22 03:23:07;;;;;;;61.60;11.15;;;;;;;11.17;65.39;102098.75;4814020;29;120145;-69
2022/09/22 03:25:33;;;;;;;64.30;10.50;;;;;;;11.13;64.69;102092.56;4815411;29;119905;-68
2022/09/22 03:28:02;;;;;;;47.22;10.32;;;;;;;11.16;64.69;102096.44;4814768;29;119559;-69
2022/09/22 03:30:27;;;;;;;57.65;11.05;;;;;;;11.11;65.33;102089.44;4813243;29;119819;-69
2022/09/22 03:32:53;;;;;;;52.03;10.17;;;;;;;11.10;65.63;102087.09;4815598;29;119503;-68
2022/09/22 03:35:19;;;;;;;67.50;13.13;;;;;;;11.11;65.47;102091.41;4815598;29;119735;-69
2022/09/22 03:37:48;;;;;;;58.60;12.13;;;;;;;11.13;65.72;102091.78;4811643;29;119564;-69
2022/09/22 03:40:13;;;;;;;46.27;11.40;;;;;;;11.14;65.46;102088.63;4795991;29;120352;-69
2022/09/22 03:42:40;;;;;;;41.90;9.50;;;;;;;11.11;64.95;102083.16;4802485;29;119609;-69
2022/09/22 03:45:07;;;;;;;37.50;8.68;;;;;;;11.09;64.52;102089.06;4815146;29;120495;-69
2022/09/22 03:47:33;;;;;;;37.80;8.90;;;;;;;11.07;64.49;102086.75;4815177;29;119624;-69
2022/09/22 03:49:59;;;;;;;34.33;9.17;;;;;;;11.05;64.35;102083.66;4812682;29;119534;-69
2022/09/22 03:52:27;;;;;;;36.17;10.60;;;;;;;11.03;64.78;102077.81;4810037;29;119704;-69
2022/09/22 03:54:53;;;;;;;52.78;11.50;;;;;;;11.03;65.19;102080.56;4814873;29;119846;-69
2022/09/22 03:57:19;;;;;;;43.97;11.65;;;;;;;11.02;65.25;102076.25;4808474;29;120064;-69
2022/09/22 03:59:44;;;;;;;54.37;12.23;;;;;;;11.01;65.47;102071.19;4815060;29;119621;-69
2022/09/22 04:02:10;;;;;;;41.13;10.33;;;;;;;11.01;64.76;102076.69;4812795;29;120011;-69
2022/09/22 04:04:36;;;;;;;50.27;10.33;;;;;;;10.99;65.67;102081.81;4816873;29;119710;-69
2022/09/22 04:07:02;;;;;;;49.28;9.82;;;;;;;10.97;65.65;102070.47;4812763;29;119618;-69
2022/09/22 04:09:37;;;;;;;49.77;9.60;;;;;;;10.96;64.01;102077.94;4812882;29;119941;-69
2022/09/22 04:12:03;;;;;;;47.40;11.13;;;;;;;10.92;65.10;102071.75;4798132;29;119448;-68
2022/09/22 04:14:29;;;;;;;43.47;10.93;;;;;;;10.92;65.07;102077.22;4813416;29;120031;-69
2022/09/22 04:16:55;;;;;;;47.85;10.93;;;;;;;10.89;65.33;102075.31;4781837;29;122951;-69
2022/09/22 04:19:34;;;;;;;53.80;11.70;;;;;;;10.90;65.83;102074.13;4810453;29;119739;-69
2022/09/22 04:22:02;;;;;;;38.78;10.38;;;;;;;10.90;65.01;102076.09;4800672;29;119529;-69
2022/09/22 04:24:27;;;;;;;45.35;10.02;;;;;;;10.87;64.87;102069.44;4813213;29;119474;-69
2022/09/22 04:26:53;;;;;;;56.17;11.82;;;;;;;10.86;65.02;102073.38;4812531;29;119916;-69
2022/09/22 04:29:19;;;;;;;61.83;12.57;;;;;;;10.81;64.88;102065.63;4809297;29;121340;-69
2022/09/22 04:31:45;;;;;;;37.10;11.82;;;;;;;10.81;64.83;102067.59;4813310;29;119823;-69
2022/09/22 04:34:10;;;;;;;38.80;11.48;;;;;;;10.80;65.13;102074.28;4813702;29;119414;-69
2022/09/22 04:36:36;;;;;;;30.15;12.75;;;;;;;10.79;65.21;102070.00;4812482;29;120058;-69
2022/09/22 04:39:03;;;;;;;52.83;14.25;;;;;;;10.76;64.93;102061.41;4813506;29;119748;-69
2022/09/22 04:41:29;;;;;;;48.60;13.55;;;;;;;10.78;65.55;102069.22;4815195;29;119789;-69
2022/09/22 04:43:56;;;;;;;49.47;13.70;;;;;;;10.79;65.98;102059.03;4812711;29;122846;-69
2022/09/22 04:46:22;;;;;;;38.95;14.32;;;;;;;10.76;65.51;102055.91;4782074;29;120134;-69
2022/09/22 04:48:47;;;;;;;47.20;14.48;;;;;;;10.79;65.29;102062.53;4813579;29;120825;-69
2022/09/22 04:51:13;;;;;;;53.25;13.80;;;;;;;10.80;65.51;102064.09;4812902;29;119205;-69
2022/09/22 04:53:39;;;;;;;42.53;17.25;;;;;;;10.80;65.62;102058.59;4813327;29;119603;-69
2022/09/22 04:56:06;;;;;;;39.00;20.52;;;;;;;10.82;65.37;102069.94;4780066;29;120089;-69
2022/09/22 04:58:32;;;;;;;54.17;23.60;;;;;;;10.83;66.21;102057.75;4792208;29;119768;-69
2022/09/22 05:01:05;;;;;;;57.30;21.80;;;;;;;10.83;66.34;102057.75;4820875;29;119681;-69
2022/09/22 05:03:31;;;;;;;58.93;19.60;;;;;;;10.86;65.87;102059.66;4821470;29;119833;-69
2022/09/22 05:06:09;;;;;;;80.43;21.92;;;;;;;10.86;66.01;102059.66;4807634;29;119805;-69
2022/09/22 05:08:34;;;;;;;57.33;21.70;;;;;;;10.87;66.02;102061.22;4816233;29;119779;-69
2022/09/22 05:11:00;;;;;;;73.50;25.40;;;;;;;10.90;66.07;102068.63;4795310;29;119969;-68
2022/09/22 05:13:26;;;;;;;58.60;22.02;;;;;;;10.88;65.80;102060.03;4810179;29;119444;-69
2022/09/22 05:15:52;;;;;;;58.63;21.27;;;;;;;10.86;65.14;102056.16;4800979;29;119265;-69
2022/09/22 05:18:31;;;;;;;50.57;24.93;;;;;;;10.83;65.17;102057.00;4780625;29;120023;-69
2022/09/22 05:20:58;;;;;;;74.18;28.00;;;;;;;10.81;65.93;102062.13;4813139;29;120189;-69
2022/09/22 05:23:24;;;;;;;76.67;27.93;;;;;;;10.80;65.62;102064.09;4813039;29;120159;-69
2022/09/22 05:25:49;;;;;;;80.72;28.77;;;;;;;10.84;65.79;102064.03;4813024;29;119445;-69
2022/09/22 05:28:15;;;;;;;94.30;31.67;;;;;;;10.86;66.51;102056.91;4796278;29;119696;-69
2022/09/22 05:30:41;;;;;;;84.82;30.27;;;;;;;10.89;66.68;102061.59;4816466;29;120021;-68
2022/09/22 05:33:06;;;;;;;81.60;31.42;;;;;;;10.96;66.21;102061.47;4812114;29;119894;-69
2022/09/22 05:35:32;;;;;;;74.97;34.60;;;;;;;10.99;67.15;102055.13;4811553;29;121037;-69
2022/09/22 05:37:58;;;;;;;80.43;33.33;;;;;;;11.07;66.62;102061.25;4812270;29;119741;-69
2022/09/22 05:40:25;;;;;;;74.05;32.63;;;;;;;11.11;67.29;102061.19;4812200;29;120201;-69
2022/09/22 05:42:52;;;;;;;53.17;30.77;;;;;;;11.15;67.29;102062.69;4801937;29;122714;-69
2022/09/22 05:45:19;;;;;;;71.80;34.13;;;;;;;11.15;67.94;102053.69;4822433;29;119632;-69
2022/09/22 05:47:45;;;;;;;87.20;34.80;;;;;;;11.22;68.31;102057.06;4808288;29;119428;-69
2022/09/22 05:50:13;;;;;;;67.97;31.35;;;;;;;11.27;68.26;102051.09;4816009;29;119899;-69
2022/09/22 05:52:39;;;;;;;83.13;30.77;;;;;;;11.34;68.23;102059.19;4818320;29;119713;-69
2022/09/22 05:55:06;;;;;;;63.63;27.90;;;;;;;11.39;67.93;102060.69;4797784;29;119678;-69
2022/09/22 05:57:32;;;;;;;74.32;30.85;;;;;;;11.48;68.41;102066.38;4815433;29;120076;-69
2022/09/22 05:59:58;;;;;;;71.22;30.25;;;;;;;11.51;68.19;102065.53;4812263;29;119218;-69
2022/09/22 06:02:24;;;;;;;77.88;29.45;;;;;;;11.61;68.09;102066.53;4811683;29;120537;-69
2022/09/22 06:04:50;;;;;;;74.97;29.23;;;;;;;11.71;68.55;102073.78;4809307;29;119710;-69
2022/09/22 06:07:19;;;;;;;73.13;24.77;;;;;;;11.83;67.88;102070.41;4811182;29;120252;-69
2022/09/22 06:09:46;;;;;;;60.67;26.20;;;;;;;11.94;67.63;102067.44;4811196;29;122730;-69
2022/09/22 06:12:12;;;;;;;68.22;26.60;;;;;;;12.02;67.44;102077.06;4812338;29;120517;-69
2022/09/22 06:14:38;;;;;;;65.40;25.27;;;;;;;12.10;67.41;102064.72;4814055;29;119773;-69
2022/09/22 06:17:04;;;;;;;64.67;25.27;;;;;;;12.19;67.42;102070.41;4812863;29;119289;-69
2022/09/22 06:19:30;;;;;;;64.63;26.05;;;;;;;12.25;67.04;102071.44;4811540;29;119601;-69
2022/09/22 06:21:55;;;;;;;74.28;25.80;;;;;;;12.30;66.69;102070.16;4811515;29;119577;-69
2022/09/22 06:24:22;;;;;;;75.50;26.60;;;;;;;12.36;66.85;102068.44;4808877;29;119714;-69
2022/09/22 06:26:49;;;;;;;62.47;26.27;;;;;;;12.45;67.44;102073.34;4811461;29;119403;-69
2022/09/22 06:29:15;;;;;;;76.03;27.90;;;;;;;12.55;67.86;102069.59;4795771;29;120727;-69
2022/09/22 06:31:41;;;;;;;87.78;29.98;;;;;;;12.64;68.15;102075.25;4808917;29;119762;-69
2022/09/22 06:34:07;;;;;;;88.20;29.70;;;;;;;12.71;68.16;102069.56;4812620;29;119268;-69
2022/09/22 06:36:33;;;;;;;87.13;29.80;;;;;;;12.80;68.15;102068.97;4815282;29;119716;-69
2022/09/22 06:39:00;;;;;;;76.00;29.67;;;;;;;12.86;67.99;102065.25;4803316;29;120377;-69
2022/09/22 06:41:32;;;;;;;70.15;31.10;;;;;;;12.91;68.99;102066.72;4799785;29;122342;-69
2022/09/22 06:44:01;;;;;;;79.93;29.87;;;;;;;13.01;69.22;102070.38;4816091;29;119916;-69
2022/09/22 06:46:30;;;;;;;68.90;27.85;;;;;;;13.10;68.79;102071.31;4812785;29;119709;-69
2022/09/22 06:48:56;;;;;;;70.45;26.17;;;;;;;13.21;68.15;102069.06;4816164;29;120276;-69
2022/09/22 06:51:27;;;;;;;61.57;25.33;;;;;;;13.33;67.77;102064.84;4815133;29;119654;-69
2022/09/22 06:53:53;;;;;;;73.45;28.15;;;;;;;13.42;68.17;102069.69;4816817;29;119643;-69
2022/09/22 06:56:24;;;;;;;68.55;27.52;;;;;;;13.50;68.15;102071.06;4809658;29;120051;-69
2022/09/22 06:58:51;;;;;;;86.57;29.52;;;;;;;13.58;68.05;102068.88;4809499;29;119921;-69
2022/09/22 07:01:18;;;;;;;76.05;28.92;;;;;;;13.67;68.25;102072.53;4804513;29;119456;-69
2022/09/22 07:03:45;;;;;;;80.93;29.05;;;;;;;13.75;67.89;102067.59;4804513;29;120656;-68
2022/09/22 07:06:15;;;;;;;71.97;29.42;;;;;;;13.84;68.46;102073.22;4802357;29;119833;-69
2022/09/22 07:08:41;;;;;;;80.40;30.30;;;;;;;13.94;68.17;102063.84;4794689;29;120037;-69
2022/09/22 07:11:08;;;;;;;72.82;29.35;;;;;;;14.03;68.25;102071.50;4799176;29;120141;-72
2022/09/22 07:13:38;;;;;;;70.25;28.08;;;;;;;14.10;68.35;102069.28;4774186;29;121235;-71
2022/09/22 07:16:10;;;;;;;70.57;28.20;;;;;;;14.22;68.19;102076.03;4803929;29;119600;-71
2022/09/22 07:18:40;;;;;;;54.60;27.23;;;;;;;14.32;68.47;102076.91;4812557;29;120105;-71
2022/09/22 07:21:09;;;;;;;61.40;25.65;;;;;;;14.42;68.00;102076.53;4811124;29;119465;-69
2022/09/22 07:23:39;;;;;;;53.58;24.67;;;;;;;14.53;68.39;102076.25;4806342;29;120197;-69
2022/09/22 07:26:09;;;;;;;65.57;24.90;;;;;;;14.64;68.29;102082.19;4808151;29;119982;-69
2022/09/22 07:28:36;;;;;;;39.95;22.30;;;;;;;14.72;67.70;102075.22;4789077;29;120662;-68
2022/09/22 07:31:13;;;;;;;80.40;23.90;;;;;;;14.81;67.85;102073.75;4807852;29;120083;-69
2022/09/22 07:33:41;;;;;;;99.50;23.88;;;;;;;14.93;68.27;102075.75;4806871;29;120594;-69
2022/09/22 07:36:11;;;;;;;66.10;22.33;;;;;;;15.03;68.33;102074.59;4804249;29;119772;-68
2022/09/22 07:38:38;;;;;;;54.83;20.43;;;;;;;15.11;67.99;102064.81;4807029;29;119988;-70
2022/09/22 07:41:07;;;;;;;50.50;15.87;;;;;;;15.20;67.52;102069.66;4815368;29;120030;-70
2022/09/22 07:43:34;;;;;;;70.72;15.70;;;;;;;15.32;67.71;102071.59;4810885;29;120292;-69
2022/09/22 07:46:00;;;;;;;56.50;14.37;;;;;;;15.43;67.25;102069.22;4809824;29;120118;-69
2022/09/22 07:48:40;;;;;;;50.03;12.90;;;;;;;15.49;66.86;102061.13;4792214;29;119644;-70
2022/09/22 07:51:20;;;;;;;56.70;14.43;;;;;;;15.61;67.12;102069.38;4806742;29;119787;-70
2022/09/22 07:54:06;;;;;;;44.05;14.18;;;;;;;15.73;66.95;102061.44;4806590;29;119843;-70
2022/09/22 07:56:38;;;;;;;54.30;13.65;;;;;;;15.85;66.45;102063.34;4804647;29;121194;-69
2022/09/22 07:59:09;;;;;;;59.72;13.95;;;;;;;15.99;66.73;102060.03;4808941;29;119918;-70
2022/09/22 08:01:36;;;;;;;58.57;13.50;;;;;;;16.14;66.65;102060.25;4804891;29;120075;-70
2022/09/22 08:04:02;;;;;;;60.80;12.85;;;;;;;16.31;66.21;102067.06;4809646;29;120099;-70
2022/09/22 08:06:27;;;;;;;35.50;10.10;;;;;;;16.47;65.42;102061.28;4808453;29;119752;-70
2022/09/22 08:08:55;;;;;;;66.33;11.23;;;;;;;16.69;65.14;102060.44;4803807;29;119721;-69
2022/09/22 08:11:24;;;;;;;52.77;8.97;;;;;;;16.86;62.93;102056.91;4819853;28;120237;-68
2022/09/22 08:14:01;;;;;;;62.60;10.03;;;;;;;17.05;63.09;102065.25;4804647;29;119573;-69
2022/09/22 08:16:30;;;;;;;74.35;10.15;;;;;;;17.21;62.51;102061.38;4802773;29;120352;-68
2022/09/22 08:19:09;;;;;;;25.17;8.93;;;;;;;17.36;61.59;102062.31;4805280;29;120880;-70
2022/09/22 08:21:36;;;;;;;45.75;9.20;;;;;;;17.48;61.87;102064.88;4806071;29;119861;-70
2022/09/22 08:24:13;;;;;;;25.23;9.13;;;;;;;17.65;61.18;102065.31;4806763;29;119775;-70
2022/09/22 08:26:42;;;;;;;47.20;10.43;;;;;;;17.81;61.87;102066.25;4806697;29;120104;-70
2022/09/22 08:29:11;;;;;;;65.05;12.25;;;;;;;17.93;61.02;102065.28;4804261;29;120537;-70
2022/09/22 08:31:40;;;;;;;66.25;11.63;;;;;;;18.06;61.89;102063.84;4805501;29;120358;-70
2022/09/22 08:34:08;;;;;;;39.10;9.77;;;;;;;18.18;60.86;102059.31;4791281;29;120866;-70
2022/09/22 08:36:34;;;;;;;68.95;10.32;;;;;;;18.26;60.01;102057.75;4802852;29;120107;-72
2022/09/22 08:39:01;;;;;;;42.17;8.00;;;;;;;18.35;58.55;102057.69;4801982;29;120340;-73
2022/09/22 08:41:27;;;;;;;52.72;9.23;;;;;;;18.44;59.15;102058.84;4804379;29;120979;-73
2022/09/22 08:43:57;;;;;;;82.88;8.95;;;;;;;18.49;57.83;102061.78;4805534;29;120120;-73
2022/09/22 08:46:38;;;;;;;40.00;5.60;;;;;;;18.55;56.92;102059.13;4799594;29;120475;-73
2022/09/22 08:52:14;;;;;;;38.70;4.85;;;;;;;18.56;55.87;102060.66;4801640;29;120155;-73
2022/09/22 08:54:41;;;;;;;29.75;3.80;;;;;;;18.59;55.94;102068.03;4801651;29;119704;-72
2022/09/22 08:57:23;;;;;;;54.50;5.90;;;;;;;18.68;55.74;102076.34;4802666;29;121880;-73
2022/09/22 09:00:17;;;;;;;29.90;4.00;;;;;;;18.70;54.70;102069.09;4800807;29;120215;-73
2022/09/22 09:02:43;;;;;;;67.05;5.25;;;;;;;18.78;56.06;102071.50;4803330;28;120196;-73
2022/09/22 09:05:30;;;;;;;74.43;6.35;;;;;;;18.87;56.73;102071.44;4793161;29;120430;-73
2022/09/22 09:08:34;;;;;;;86.35;7.13;;;;;;;18.96;57.05;102068.59;4802119;29;120065;-73
2022/09/22 09:11:23;;;;;;;65.40;6.10;;;;;;;19.04;56.04;102071.78;4804014;28;119935;-72
2022/09/22 09:14:07;;;;;;;58.20;5.37;;;;;;;19.10;56.48;102064.28;4803291;29;119952;-73
2022/09/22 09:16:50;;;;;;;70.28;6.95;;;;;;;19.06;55.16;102058.94;4802273;29;120694;-73
2022/09/22 09:19:26;;;;;;;54.57;5.60;;;;;;;19.09;55.74;102062.75;4800100;29;119603;-73
2022/09/22 09:22:03;;;;;;;50.22;5.88;;;;;;;19.11;54.98;102061.03;4817457;29;120207;-72
2022/09/22 09:24:36;;;;;;;32.63;5.03;;;;;;;19.18;56.18;102065.47;4785250;29;121392;-72
2022/09/22 09:27:14;;;;;;;50.88;5.43;;;;;;;19.19;55.61;102062.22;4800959;29;120417;-73
2022/09/22 09:30:19;;;;;;;46.50;5.60;;;;;;;19.23;55.44;102065.59;4728795;29;119715;-73
2022/09/22 09:32:52;;;;;;;58.55;5.40;;;;;;;19.30;55.32;102058.88;4805240;29;119975;-73
2022/09/22 09:35:42;;;;;;;39.90;5.40;;;;;;;19.32;55.08;102054.34;4803255;29;119968;-73
2022/09/22 09:38:14;;;;;;;76.10;7.10;;;;;;;19.38;54.21;102053.69;4802356;29;120132;-73
2022/09/22 09:40:40;;;;;;;56.07;5.83;;;;;;;19.38;54.53;102042.56;4801180;29;120407;-72
2022/09/22 09:43:07;;;;;;;55.42;5.63;;;;;;;19.42;53.50;102043.16;4802823;29;120444;-73
2022/09/22 09:45:36;;;;;;;40.75;5.10;;;;;;;19.46;54.08;102050.06;4800430;29;120061;-72
2022/09/22 09:48:32;;;;;;;48.65;5.30;;;;;;;19.50;53.58;102045.06;4804371;29;120396;-72
2022/09/22 09:51:04;;;;;;;51.10;5.38;;;;;;;19.52;53.67;102045.34;4800446;29;120367;-73
2022/09/22 09:53:39;;;;;;;33.92;4.60;;;;;;;19.54;53.43;102040.09;4801109;29;120172;-72
2022/09/22 09:56:28;;;;;;;32.65;4.22;;;;;;;19.61;54.20;102033.38;4798534;29;119716;-72
2022/09/22 10:01:52;;;;;;;47.13;4.82;;;;;;;19.70;53.14;102024.16;4802200;29;120056;-73
2022/09/22 10:04:36;;;;;;;30.77;3.65;;;;;;;19.74;53.73;102024.72;4802975;29;120152;-73
2022/09/22 10:07:14;;;;;;;51.67;4.88;;;;;;;19.77;52.77;102026.56;4806407;29;119889;-73
2022/09/22 10:09:40;;;;;;;51.43;4.77;;;;;;;19.77;52.24;102016.19;4802948;29;120964;-73
2022/09/22 10:12:20;;;;;;;55.40;5.38;;;;;;;19.80;52.57;102018.00;4806823;29;119838;-72
2022/09/22 10:14:51;;;;;;;33.33;4.05;;;;;;;19.85;51.70;102025.66;4817737;29;120479;-73
2022/09/22 10:17:28;;;;;;;47.83;4.32;;;;;;;19.87;51.38;102022.41;4800961;29;120680;-73
2022/09/22 10:20:28;;;;;;;33.97;3.73;;;;;;;19.87;51.21;102017.63;4802616;29;120996;-73
2022/09/22 10:22:55;;;;;;;39.00;4.38;;;;;;;19.94;50.69;102019.22;4804691;29;119847;-73
2022/09/22 10:25:31;;;;;;;48.30;4.18;;;;;;;20.01;51.02;102016.03;4802425;29;120065;-73
2022/09/22 10:28:08;;;;;;;24.17;3.73;;;;;;;20.03;49.90;102021.88;4805332;29;120184;-73
2022/09/22 10:30:37;;;;;;;32.80;3.87;;;;;;;20.05;50.44;102016.59;4803008;29;120691;-73
2022/09/22 10:33:03;;;;;;;39.28;4.30;;;;;;;20.04;50.03;102017.84;4804210;29;120725;-73
2022/09/22 10:35:31;;;;;;;51.08;4.93;;;;;;;20.05;50.18;102018.63;4804803;29;120519;-73
2022/09/22 10:38:08;;;;;;;37.15;4.15;;;;;;;19.98;51.11;102019.78;4802303;29;122313;-73
2022/09/22 10:40:38;;;;;;;19.10;3.05;;;;;;;19.97;50.19;102017.50;4804430;29;119983;-73
2022/09/22 10:43:20;;;;;;;14.93;3.05;;;;;;;19.98;49.29;102016.25;4804055;29;120162;-73
2022/09/22 10:46:08;;;;;;;45.92;4.05;;;;;;;20.03;50.61;102009.97;4826964;29;121092;-73
2022/09/22 10:49:16;;;;;;;31.75;4.18;;;;;;;20.00;49.79;102017.28;4807628;29;120185;-73
2022/09/22 10:52:16;;;;;;;38.20;4.30;;;;;;;19.90;50.80;102016.66;4807941;29;120036;-73
2022/09/22 10:54:57;;;;;;;35.33;4.30;;;;;;;19.92;50.75;102016.16;4825078;28;120014;-72
2022/09/22 10:58:01;;;;;;;43.10;4.33;;;;;;;19.98;50.58;102017.00;4806497;29;120050;-73
2022/09/22 11:00:27;;;;;;;39.72;4.72;;;;;;;19.94;49.72;102008.09;4807749;29;120123;-73
2022/09/22 11:02:59;;;;;;;25.73;3.57;;;;;;;20.03;50.86;102012.75;4808400;29;120228;-73
2022/09/22 11:14:22;;;;;;;16.55;3.20;;;;;;;20.15;50.28;102000.53;4807979;29;120057;-73
2022/09/22 11:17:16;;;;;;;23.60;3.78;;;;;;;20.02;49.82;102000.84;4811302;29;119980;-73
2022/09/22 11:19:54;;;;;;;50.40;4.47;;;;;;;19.98;50.52;101997.50;4794422;29;121450;-73
2022/09/22 11:22:46;;;;;;;31.80;3.72;;;;;;;20.05;51.58;101999.13;4809900;29;119932;-72
2022/09/22 11:25:25;;;;;;;24.52;3.95;;;;;;;20.09;48.92;101988.53;4803644;29;120200;-73
2022/09/22 11:28:02;;;;;;;27.90;4.22;;;;;;;20.09;48.59;101991.31;4804777;29;121309;-73
2022/09/22 11:30:44;;;;;;;24.23;3.55;;;;;;;20.06;48.57;101984.69;4802545;29;120316;-73
2022/09/22 11:33:47;;;;;;;18.15;2.92;;;;;;;20.08;49.26;101981.44;4811567;29;120060;-73
2022/09/22 11:36:26;;;;;;;20.77;3.70;;;;;;;20.07;48.37;101980.66;4806813;29;120094;-73
2022/09/22 11:39:10;;;;;;;33.85;4.38;;;;;;;20.08;48.70;101979.41;4805141;29;120380;-73
2022/09/22 11:42:10;;;;;;;26.25;3.88;;;;;;;20.06;49.87;101987.50;4825685;29;119734;-73
2022/09/22 11:44:56;;;;;;;21.52;3.13;;;;;;;20.00;50.96;101983.88;4808401;29;120202;-73